Aviation Digital Data Service (ADDS)

Output produced by TAFs form (0353 UTC 01 September 2015)
found at http://www.aviationweather.gov/adds/tafs/
 
KABE 312335Z 0100/0124 25009KT P6SM SCT050 
     FM010300 VRB02KT P6SM SKC 
     FM011300 34003KT P6SM SKC 
     FM011800 01005KT P6SM SKC